Terminal Aerodrome Forecast
Issued by NWS

Home | Current Version | Previous Version | Text Only | Print | Product List | Glossary On
Versions: 1 2 3 4 5 6 7 8 9 10 11 12 13 14 15 16 17 18
000
FTUS46 KSEW 241100
TAFBLI
TAF
KBLI 241136Z 2412/2512 VRB03KT P6SM SCT025 OVC040
      TEMPO 2414/2416 BKN025 OVC040
     FM241800 02008KT P6SM SCT035 BKN060 BKN100
     FM242100 02008KT P6SM SCT060 BKN100
     FM250900 02008KT P6SM -RA OVC040=

USA.gov is the U.S. government's official web portal to all federal, state and local government web resources and services.